sensor_id;sensor_type;location;lat;lon;timestamp;P1;durP1;ratioP1;P2;durP2;ratioP2
55776;SDS011;54079;44.540;18.784;2023-12-14T00:00:18;2.78;;;1.52;;
55776;SDS011;54079;44.540;18.784;2023-12-14T00:02:44;4.28;;;2.35;;
55776;SDS011;54079;44.540;18.784;2023-12-14T00:05:10;3.63;;;2.70;;
55776;SDS011;54079;44.540;18.784;2023-12-14T00:07:36;11.68;;;7.25;;
55776;SDS011;54079;44.540;18.784;2023-12-14T00:10:03;10.65;;;7.05;;
55776;SDS011;54079;44.540;18.784;2023-12-14T00:12:30;3.58;;;2.53;;
55776;SDS011;54079;44.540;18.784;2023-12-14T00:14:56;1.75;;;1.38;;
55776;SDS011;54079;44.540;18.784;2023-12-14T00:17:22;5.20;;;3.15;;
55776;SDS011;54079;44.540;18.784;2023-12-14T00:19:48;6.07;;;3.33;;
55776;SDS011;54079;44.540;18.784;2023-12-14T00:22:14;4.20;;;2.60;;
55776;SDS011;54079;44.540;18.784;2023-12-14T00:24:40;2.83;;;1.45;;
55776;SDS011;54079;44.540;18.784;2023-12-14T00:27:06;1.48;;;0.65;;
55776;SDS011;54079;44.540;18.784;2023-12-14T00:29:32;0.55;;;0.10;;
55776;SDS011;54079;44.540;18.784;2023-12-14T00:31:58;0.98;;;0.30;;
55776;SDS011;54079;44.540;18.784;2023-12-14T00:34:23;1.58;;;0.40;;
55776;SDS011;54079;44.540;18.784;2023-12-14T00:36:50;1.92;;;1.25;;
55776;SDS011;54079;44.540;18.784;2023-12-14T00:39:15;1.67;;;0.90;;
55776;SDS011;54079;44.540;18.784;2023-12-14T00:41:41;1.17;;;0.90;;
55776;SDS011;54079;44.540;18.784;2023-12-14T00:44:08;4.68;;;2.33;;
55776;SDS011;54079;44.540;18.784;2023-12-14T00:46:33;1.27;;;0.90;;
55776;SDS011;54079;44.540;18.784;2023-12-14T00:48:59;4.95;;;3.17;;
55776;SDS011;54079;44.540;18.784;2023-12-14T00:51:27;6.72;;;4.57;;
55776;SDS011;54079;44.540;18.784;2023-12-14T00:53:53;9.20;;;5.93;;
55776;SDS011;54079;44.540;18.784;2023-12-14T00:56:19;1.38;;;0.65;;
55776;SDS011;54079;44.540;18.784;2023-12-14T00:58:45;12.55;;;8.50;;
55776;SDS011;54079;44.540;18.784;2023-12-14T01:01:11;10.23;;;5.30;;
55776;SDS011;54079;44.540;18.784;2023-12-14T01:03:37;4.85;;;2.65;;
55776;SDS011;54079;44.540;18.784;2023-12-14T01:06:03;1.00;;;0.40;;
55776;SDS011;54079;44.540;18.784;2023-12-14T01:08:29;2.78;;;1.77;;
55776;SDS011;54079;44.540;18.784;2023-12-14T01:10:55;1.13;;;0.60;;
55776;SDS011;54079;44.540;18.784;2023-12-14T01:13:21;5.65;;;4.28;;
55776;SDS011;54079;44.540;18.784;2023-12-14T01:15:47;1.55;;;0.80;;
55776;SDS011;54079;44.540;18.784;2023-12-14T01:18:13;1.00;;;0.50;;
55776;SDS011;54079;44.540;18.784;2023-12-14T01:20:39;1.05;;;0.65;;
55776;SDS011;54079;44.540;18.784;2023-12-14T01:23:05;0.75;;;0.43;;
55776;SDS011;54079;44.540;18.784;2023-12-14T01:25:31;0.63;;;0.22;;
55776;SDS011;54079;44.540;18.784;2023-12-14T01:27:57;1.02;;;0.40;;
55776;SDS011;54079;44.540;18.784;2023-12-14T01:30:23;1.00;;;0.30;;
55776;SDS011;54079;44.540;18.784;2023-12-14T01:32:49;0.63;;;0.10;;
55776;SDS011;54079;44.540;18.784;2023-12-14T01:35:15;1.33;;;0.68;;
55776;SDS011;54079;44.540;18.784;2023-12-14T01:37:41;0.80;;;0.10;;
55776;SDS011;54079;44.540;18.784;2023-12-14T01:40:07;4.50;;;1.75;;
55776;SDS011;54079;44.540;18.784;2023-12-14T01:42:33;2.95;;;1.73;;
55776;SDS011;54079;44.540;18.784;2023-12-14T01:44:59;2.35;;;1.05;;
55776;SDS011;54079;44.540;18.784;2023-12-14T01:47:25;1.02;;;0.50;;
55776;SDS011;54079;44.540;18.784;2023-12-14T01:49:51;3.08;;;2.03;;
55776;SDS011;54079;44.540;18.784;2023-12-14T01:52:17;2.28;;;1.20;;
55776;SDS011;54079;44.540;18.784;2023-12-14T01:54:43;2.47;;;1.70;;
55776;SDS011;54079;44.540;18.784;2023-12-14T01:57:09;6.45;;;4.65;;
55776;SDS011;54079;44.540;18.784;2023-12-14T01:59:35;2.45;;;1.70;;
55776;SDS011;54079;44.540;18.784;2023-12-14T02:02:01;2.75;;;1.30;;
55776;SDS011;54079;44.540;18.784;2023-12-14T02:04:28;4.90;;;2.67;;
55776;SDS011;54079;44.540;18.784;2023-12-14T02:06:54;3.15;;;2.00;;
55776;SDS011;54079;44.540;18.784;2023-12-14T02:09:20;2.05;;;1.40;;
55776;SDS011;54079;44.540;18.784;2023-12-14T02:11:45;3.10;;;2.65;;
55776;SDS011;54079;44.540;18.784;2023-12-14T02:14:12;3.22;;;2.22;;
55776;SDS011;54079;44.540;18.784;2023-12-14T02:16:38;5.85;;;3.75;;
55776;SDS011;54079;44.540;18.784;2023-12-14T02:19:04;4.15;;;3.22;;
55776;SDS011;54079;44.540;18.784;2023-12-14T02:21:30;9.05;;;5.72;;
55776;SDS011;54079;44.540;18.784;2023-12-14T02:23:56;10.40;;;7.35;;
55776;SDS011;54079;44.540;18.784;2023-12-14T02:26:22;2.60;;;1.73;;
55776;SDS011;54079;44.540;18.784;2023-12-14T02:28:48;4.97;;;3.28;;
55776;SDS011;54079;44.540;18.784;2023-12-14T02:31:14;5.25;;;3.92;;
55776;SDS011;54079;44.540;18.784;2023-12-14T02:33:40;2.90;;;2.10;;
55776;SDS011;54079;44.540;18.784;2023-12-14T02:36:06;5.65;;;4.22;;
55776;SDS011;54079;44.540;18.784;2023-12-14T02:38:32;6.45;;;4.30;;
55776;SDS011;54079;44.540;18.784;2023-12-14T02:40:58;4.63;;;3.13;;
55776;SDS011;54079;44.540;18.784;2023-12-14T02:43:25;2.85;;;1.95;;
55776;SDS011;54079;44.540;18.784;2023-12-14T02:45:50;4.68;;;3.60;;
55776;SDS011;54079;44.540;18.784;2023-12-14T02:48:17;2.67;;;2.03;;
55776;SDS011;54079;44.540;18.784;2023-12-14T02:50:43;4.25;;;2.30;;
55776;SDS011;54079;44.540;18.784;2023-12-14T02:53:08;5.53;;;3.65;;
55776;SDS011;54079;44.540;18.784;2023-12-14T02:55:34;4.72;;;3.30;;
55776;SDS011;54079;44.540;18.784;2023-12-14T02:58:00;6.63;;;4.50;;
55776;SDS011;54079;44.540;18.784;2023-12-14T03:00:26;4.03;;;2.92;;
55776;SDS011;54079;44.540;18.784;2023-12-14T03:02:52;2.85;;;2.20;;
55776;SDS011;54079;44.540;18.784;2023-12-14T03:05:18;1.77;;;1.60;;
55776;SDS011;54079;44.540;18.784;2023-12-14T03:07:44;4.50;;;3.50;;
55776;SDS011;54079;44.540;18.784;2023-12-14T03:10:10;6.70;;;5.00;;
55776;SDS011;54079;44.540;18.784;2023-12-14T03:12:36;9.18;;;6.70;;
55776;SDS011;54079;44.540;18.784;2023-12-14T03:15:02;7.07;;;5.18;;
55776;SDS011;54079;44.540;18.784;2023-12-14T03:17:29;3.45;;;2.55;;
55776;SDS011;54079;44.540;18.784;2023-12-14T03:19:54;4.38;;;3.00;;
55776;SDS011;54079;44.540;18.784;2023-12-14T03:22:20;3.20;;;1.30;;
55776;SDS011;54079;44.540;18.784;2023-12-14T03:24:46;3.22;;;2.00;;
55776;SDS011;54079;44.540;18.784;2023-12-14T03:27:12;3.65;;;2.63;;
55776;SDS011;54079;44.540;18.784;2023-12-14T03:29:38;4.10;;;2.15;;
55776;SDS011;54079;44.540;18.784;2023-12-14T03:32:04;9.43;;;3.05;;
55776;SDS011;54079;44.540;18.784;2023-12-14T03:34:30;6.63;;;4.63;;
55776;SDS011;54079;44.540;18.784;2023-12-14T03:36:56;5.53;;;4.05;;
55776;SDS011;54079;44.540;18.784;2023-12-14T03:39:22;5.13;;;3.38;;
55776;SDS011;54079;44.540;18.784;2023-12-14T03:41:48;3.22;;;2.25;;
55776;SDS011;54079;44.540;18.784;2023-12-14T03:44:14;3.38;;;1.73;;
55776;SDS011;54079;44.540;18.784;2023-12-14T03:46:40;1.40;;;0.50;;
55776;SDS011;54079;44.540;18.784;2023-12-14T03:49:06;3.03;;;2.30;;
55776;SDS011;54079;44.540;18.784;2023-12-14T03:51:32;0.80;;;0.50;;
55776;SDS011;54079;44.540;18.784;2023-12-14T03:53:58;2.22;;;1.65;;
55776;SDS011;54079;44.540;18.784;2023-12-14T03:56:24;4.97;;;1.27;;
55776;SDS011;54079;44.540;18.784;2023-12-14T03:58:50;4.18;;;2.67;;
55776;SDS011;54079;44.540;18.784;2023-12-14T04:01:19;4.97;;;2.90;;
55776;SDS011;54079;44.540;18.784;2023-12-14T04:03:46;3.13;;;2.08;;
55776;SDS011;54079;44.540;18.784;2023-12-14T04:06:13;3.63;;;2.50;;
55776;SDS011;54079;44.540;18.784;2023-12-14T04:08:39;2.55;;;1.48;;
55776;SDS011;54079;44.540;18.784;2023-12-14T04:11:06;1.65;;;1.00;;
55776;SDS011;54079;44.540;18.784;2023-12-14T04:13:32;2.35;;;1.52;;
55776;SDS011;54079;44.540;18.784;2023-12-14T04:15:58;1.33;;;0.90;;
55776;SDS011;54079;44.540;18.784;2023-12-14T04:18:25;1.48;;;0.80;;
55776;SDS011;54079;44.540;18.784;2023-12-14T04:20:51;0.98;;;0.75;;
55776;SDS011;54079;44.540;18.784;2023-12-14T04:23:17;1.33;;;0.93;;
55776;SDS011;54079;44.540;18.784;2023-12-14T04:25:44;1.08;;;0.43;;
55776;SDS011;54079;44.540;18.784;2023-12-14T04:28:10;1.10;;;0.60;;
55776;SDS011;54079;44.540;18.784;2023-12-14T04:30:36;1.50;;;0.63;;
55776;SDS011;54079;44.540;18.784;2023-12-14T04:33:02;1.02;;;0.40;;
55776;SDS011;54079;44.540;18.784;2023-12-14T04:35:27;2.50;;;1.52;;
55776;SDS011;54079;44.540;18.784;2023-12-14T04:37:53;4.07;;;3.00;;
55776;SDS011;54079;44.540;18.784;2023-12-14T04:40:19;0.75;;;0.40;;
55776;SDS011;54079;44.540;18.784;2023-12-14T04:42:46;2.58;;;1.38;;
55776;SDS011;54079;44.540;18.784;2023-12-14T04:45:12;1.75;;;0.93;;
55776;SDS011;54079;44.540;18.784;2023-12-14T04:47:38;2.42;;;1.65;;
55776;SDS011;54079;44.540;18.784;2023-12-14T04:50:04;0.90;;;0.32;;
55776;SDS011;54079;44.540;18.784;2023-12-14T04:52:30;0.70;;;0.30;;
55776;SDS011;54079;44.540;18.784;2023-12-14T04:54:56;0.93;;;0.77;;
55776;SDS011;54079;44.540;18.784;2023-12-14T04:57:22;1.02;;;0.80;;
55776;SDS011;54079;44.540;18.784;2023-12-14T04:59:48;1.58;;;1.08;;
55776;SDS011;54079;44.540;18.784;2023-12-14T05:02:14;2.05;;;1.27;;
55776;SDS011;54079;44.540;18.784;2023-12-14T05:04:40;3.47;;;2.60;;
55776;SDS011;54079;44.540;18.784;2023-12-14T05:07:06;2.28;;;1.33;;
55776;SDS011;54079;44.540;18.784;2023-12-14T05:09:32;1.65;;;1.00;;
55776;SDS011;54079;44.540;18.784;2023-12-14T05:11:58;2.10;;;1.45;;
55776;SDS011;54079;44.540;18.784;2023-12-14T05:14:24;1.35;;;0.80;;
55776;SDS011;54079;44.540;18.784;2023-12-14T05:16:50;3.67;;;2.55;;
55776;SDS011;54079;44.540;18.784;2023-12-14T05:19:16;1.48;;;1.00;;
55776;SDS011;54079;44.540;18.784;2023-12-14T05:21:42;0.30;;;0.17;;
55776;SDS011;54079;44.540;18.784;2023-12-14T05:24:09;0.38;;;0.00;;
55776;SDS011;54079;44.540;18.784;2023-12-14T05:26:35;0.40;;;0.10;;
55776;SDS011;54079;44.540;18.784;2023-12-14T05:29:01;0.80;;;0.50;;
55776;SDS011;54079;44.540;18.784;2023-12-14T05:31:27;0.93;;;0.50;;
55776;SDS011;54079;44.540;18.784;2023-12-14T05:33:53;1.60;;;0.82;;
55776;SDS011;54079;44.540;18.784;2023-12-14T05:36:19;0.90;;;0.43;;
55776;SDS011;54079;44.540;18.784;2023-12-14T05:38:45;2.40;;;1.73;;
55776;SDS011;54079;44.540;18.784;2023-12-14T05:41:11;1.38;;;0.93;;
55776;SDS011;54079;44.540;18.784;2023-12-14T05:43:37;2.50;;;2.03;;
55776;SDS011;54079;44.540;18.784;2023-12-14T05:46:03;2.55;;;1.92;;
55776;SDS011;54079;44.540;18.784;2023-12-14T05:48:29;1.55;;;0.55;;
55776;SDS011;54079;44.540;18.784;2023-12-14T05:50:56;3.28;;;1.80;;
55776;SDS011;54079;44.540;18.784;2023-12-14T05:53:22;0.70;;;0.40;;
55776;SDS011;54079;44.540;18.784;2023-12-14T05:55:48;0.95;;;0.55;;
55776;SDS011;54079;44.540;18.784;2023-12-14T05:58:14;3.72;;;2.45;;
55776;SDS011;54079;44.540;18.784;2023-12-14T06:00:40;2.72;;;2.20;;
55776;SDS011;54079;44.540;18.784;2023-12-14T06:03:06;3.83;;;2.55;;
55776;SDS011;54079;44.540;18.784;2023-12-14T06:05:32;1.67;;;1.05;;
55776;SDS011;54079;44.540;18.784;2023-12-14T06:07:58;1.80;;;1.27;;
55776;SDS011;54079;44.540;18.784;2023-12-14T06:10:24;1.05;;;0.90;;
55776;SDS011;54079;44.540;18.784;2023-12-14T06:12:50;2.08;;;1.45;;
55776;SDS011;54079;44.540;18.784;2023-12-14T06:15:16;2.05;;;1.38;;
55776;SDS011;54079;44.540;18.784;2023-12-14T06:17:42;0.95;;;0.70;;
55776;SDS011;54079;44.540;18.784;2023-12-14T06:20:08;1.63;;;1.10;;
55776;SDS011;54079;44.540;18.784;2023-12-14T06:22:37;2.38;;;1.83;;
55776;SDS011;54079;44.540;18.784;2023-12-14T06:25:03;2.28;;;1.60;;
55776;SDS011;54079;44.540;18.784;2023-12-14T06:27:30;1.83;;;1.25;;
55776;SDS011;54079;44.540;18.784;2023-12-14T06:29:56;1.27;;;0.70;;
55776;SDS011;54079;44.540;18.784;2023-12-14T06:32:22;1.30;;;1.00;;
55776;SDS011;54079;44.540;18.784;2023-12-14T06:34:48;2.08;;;0.93;;
55776;SDS011;54079;44.540;18.784;2023-12-14T06:37:14;1.60;;;1.17;;
55776;SDS011;54079;44.540;18.784;2023-12-14T06:39:43;4.88;;;3.15;;
55776;SDS011;54079;44.540;18.784;2023-12-14T06:42:09;2.97;;;2.42;;
55776;SDS011;54079;44.540;18.784;2023-12-14T06:44:36;2.88;;;2.17;;
55776;SDS011;54079;44.540;18.784;2023-12-14T06:47:02;3.00;;;2.05;;
55776;SDS011;54079;44.540;18.784;2023-12-14T06:49:29;1.70;;;0.90;;
55776;SDS011;54079;44.540;18.784;2023-12-14T06:51:55;2.40;;;1.35;;
55776;SDS011;54079;44.540;18.784;2023-12-14T06:54:21;5.43;;;4.32;;
55776;SDS011;54079;44.540;18.784;2023-12-14T06:56:47;2.40;;;1.38;;
55776;SDS011;54079;44.540;18.784;2023-12-14T06:59:13;6.28;;;3.67;;
55776;SDS011;54079;44.540;18.784;2023-12-14T07:01:39;8.25;;;5.53;;
55776;SDS011;54079;44.540;18.784;2023-12-14T07:04:05;7.10;;;5.45;;
55776;SDS011;54079;44.540;18.784;2023-12-14T07:06:33;6.97;;;4.50;;
55776;SDS011;54079;44.540;18.784;2023-12-14T07:09:00;5.82;;;3.53;;
55776;SDS011;54079;44.540;18.784;2023-12-14T07:11:26;7.75;;;5.30;;
55776;SDS011;54079;44.540;18.784;2023-12-14T07:13:52;3.00;;;2.13;;
55776;SDS011;54079;44.540;18.784;2023-12-14T07:16:18;7.53;;;3.65;;
55776;SDS011;54079;44.540;18.784;2023-12-14T07:18:44;7.70;;;3.65;;
55776;SDS011;54079;44.540;18.784;2023-12-14T07:21:10;4.85;;;2.63;;
55776;SDS011;54079;44.540;18.784;2023-12-14T07:23:36;6.43;;;3.33;;
55776;SDS011;54079;44.540;18.784;2023-12-14T07:26:02;11.63;;;7.00;;
55776;SDS011;54079;44.540;18.784;2023-12-14T07:28:29;11.02;;;5.93;;
55776;SDS011;54079;44.540;18.784;2023-12-14T07:30:55;7.25;;;4.70;;
55776;SDS011;54079;44.540;18.784;2023-12-14T07:33:21;15.88;;;10.15;;
55776;SDS011;54079;44.540;18.784;2023-12-14T07:35:47;9.52;;;6.30;;
55776;SDS011;54079;44.540;18.784;2023-12-14T07:38:13;14.32;;;10.20;;
55776;SDS011;54079;44.540;18.784;2023-12-14T07:40:39;18.08;;;11.73;;
55776;SDS011;54079;44.540;18.784;2023-12-14T07:43:05;19.40;;;12.50;;
55776;SDS011;54079;44.540;18.784;2023-12-14T07:45:32;20.80;;;13.88;;
55776;SDS011;54079;44.540;18.784;2023-12-14T07:47:58;16.70;;;10.40;;
55776;SDS011;54079;44.540;18.784;2023-12-14T07:50:25;12.10;;;7.88;;
55776;SDS011;54079;44.540;18.784;2023-12-14T07:52:51;13.40;;;7.80;;
55776;SDS011;54079;44.540;18.784;2023-12-14T07:55:18;10.27;;;7.38;;
55776;SDS011;54079;44.540;18.784;2023-12-14T07:57:44;12.52;;;8.30;;
55776;SDS011;54079;44.540;18.784;2023-12-14T08:00:10;9.02;;;6.82;;
55776;SDS011;54079;44.540;18.784;2023-12-14T08:02:37;13.32;;;9.95;;
55776;SDS011;54079;44.540;18.784;2023-12-14T08:05:03;16.15;;;10.80;;
55776;SDS011;54079;44.540;18.784;2023-12-14T08:07:33;20.33;;;14.05;;
55776;SDS011;54079;44.540;18.784;2023-12-14T08:09:59;12.52;;;7.95;;
55776;SDS011;54079;44.540;18.784;2023-12-14T08:12:25;14.95;;;9.68;;
55776;SDS011;54079;44.540;18.784;2023-12-14T08:14:52;13.15;;;9.18;;
55776;SDS011;54079;44.540;18.784;2023-12-14T08:17:18;9.10;;;6.65;;
55776;SDS011;54079;44.540;18.784;2023-12-14T08:19:44;8.48;;;6.55;;
55776;SDS011;54079;44.540;18.784;2023-12-14T08:22:10;6.43;;;5.72;;
55776;SDS011;54079;44.540;18.784;2023-12-14T08:24:41;10.52;;;7.85;;
55776;SDS011;54079;44.540;18.784;2023-12-14T08:27:07;8.63;;;7.07;;
55776;SDS011;54079;44.540;18.784;2023-12-14T08:29:33;6.93;;;5.53;;
55776;SDS011;54079;44.540;18.784;2023-12-14T08:31:59;8.13;;;5.95;;
55776;SDS011;54079;44.540;18.784;2023-12-14T08:34:26;11.25;;;8.40;;
55776;SDS011;54079;44.540;18.784;2023-12-14T08:36:53;9.88;;;7.63;;
55776;SDS011;54079;44.540;18.784;2023-12-14T08:39:19;6.97;;;6.20;;
55776;SDS011;54079;44.540;18.784;2023-12-14T08:41:46;4.82;;;4.18;;
55776;SDS011;54079;44.540;18.784;2023-12-14T08:44:12;3.05;;;2.08;;
55776;SDS011;54079;44.540;18.784;2023-12-14T08:46:43;4.45;;;2.97;;
55776;SDS011;54079;44.540;18.784;2023-12-14T08:49:13;3.40;;;2.45;;
55776;SDS011;54079;44.540;18.784;2023-12-14T08:51:40;7.63;;;4.97;;
55776;SDS011;54079;44.540;18.784;2023-12-14T08:54:07;8.68;;;5.28;;
55776;SDS011;54079;44.540;18.784;2023-12-14T08:56:33;8.95;;;4.82;;
55776;SDS011;54079;44.540;18.784;2023-12-14T08:58:59;12.00;;;8.25;;
55776;SDS011;54079;44.540;18.784;2023-12-14T09:01:28;12.73;;;8.15;;
55776;SDS011;54079;44.540;18.784;2023-12-14T09:03:55;10.05;;;6.20;;
55776;SDS011;54079;44.540;18.784;2023-12-14T09:06:20;11.43;;;7.75;;
55776;SDS011;54079;44.540;18.784;2023-12-14T09:08:46;8.90;;;5.78;;
55776;SDS011;54079;44.540;18.784;2023-12-14T09:11:12;6.65;;;4.78;;
55776;SDS011;54079;44.540;18.784;2023-12-14T09:13:40;2.35;;;1.85;;
55776;SDS011;54079;44.540;18.784;2023-12-14T09:16:07;9.68;;;6.05;;
55776;SDS011;54079;44.540;18.784;2023-12-14T09:18:33;11.80;;;7.80;;
55776;SDS011;54079;44.540;18.784;2023-12-14T09:20:59;11.13;;;7.28;;
55776;SDS011;54079;44.540;18.784;2023-12-14T09:23:25;4.00;;;2.70;;
55776;SDS011;54079;44.540;18.784;2023-12-14T09:25:51;5.47;;;3.75;;
55776;SDS011;54079;44.540;18.784;2023-12-14T09:28:17;10.77;;;7.03;;
55776;SDS011;54079;44.540;18.784;2023-12-14T09:30:43;4.55;;;2.70;;
55776;SDS011;54079;44.540;18.784;2023-12-14T09:33:09;4.68;;;3.08;;
55776;SDS011;54079;44.540;18.784;2023-12-14T09:35:35;7.18;;;4.97;;
55776;SDS011;54079;44.540;18.784;2023-12-14T09:38:02;4.90;;;3.08;;
55776;SDS011;54079;44.540;18.784;2023-12-14T09:40:28;5.70;;;3.55;;
55776;SDS011;54079;44.540;18.784;2023-12-14T09:42:55;9.68;;;6.53;;
55776;SDS011;54079;44.540;18.784;2023-12-14T09:45:27;17.77;;;11.77;;
55776;SDS011;54079;44.540;18.784;2023-12-14T09:47:55;18.02;;;12.65;;
55776;SDS011;54079;44.540;18.784;2023-12-14T09:50:25;9.43;;;6.45;;
55776;SDS011;54079;44.540;18.784;2023-12-14T09:52:51;8.40;;;6.18;;
55776;SDS011;54079;44.540;18.784;2023-12-14T09:55:17;17.92;;;11.73;;
55776;SDS011;54079;44.540;18.784;2023-12-14T09:57:44;16.83;;;11.13;;
55776;SDS011;54079;44.540;18.784;2023-12-14T10:00:10;6.82;;;5.25;;
55776;SDS011;54079;44.540;18.784;2023-12-14T10:02:39;4.68;;;3.35;;
55776;SDS011;54079;44.540;18.784;2023-12-14T10:05:08;5.65;;;3.83;;
55776;SDS011;54079;44.540;18.784;2023-12-14T10:07:42;3.70;;;2.97;;
55776;SDS011;54079;44.540;18.784;2023-12-14T10:10:10;8.40;;;5.80;;
55776;SDS011;54079;44.540;18.784;2023-12-14T10:12:56;23.25;;;15.98;;
55776;SDS011;54079;44.540;18.784;2023-12-14T10:15:22;16.33;;;10.43;;
55776;SDS011;54079;44.540;18.784;2023-12-14T10:17:53;3.08;;;2.25;;
55776;SDS011;54079;44.540;18.784;2023-12-14T10:20:19;6.13;;;3.60;;
55776;SDS011;54079;44.540;18.784;2023-12-14T10:22:51;19.80;;;13.70;;
55776;SDS011;54079;44.540;18.784;2023-12-14T10:25:18;12.35;;;8.68;;
55776;SDS011;54079;44.540;18.784;2023-12-14T10:27:47;10.35;;;6.85;;
55776;SDS011;54079;44.540;18.784;2023-12-14T10:30:16;9.07;;;4.60;;
55776;SDS011;54079;44.540;18.784;2023-12-14T10:32:42;10.95;;;7.57;;
55776;SDS011;54079;44.540;18.784;2023-12-14T10:35:08;14.20;;;9.70;;
55776;SDS011;54079;44.540;18.784;2023-12-14T10:37:37;9.05;;;6.13;;
55776;SDS011;54079;44.540;18.784;2023-12-14T10:40:06;3.13;;;2.10;;
55776;SDS011;54079;44.540;18.784;2023-12-14T10:42:35;8.93;;;5.65;;
55776;SDS011;54079;44.540;18.784;2023-12-14T10:45:02;7.15;;;5.05;;
55776;SDS011;54079;44.540;18.784;2023-12-14T10:47:29;6.25;;;3.97;;
55776;SDS011;54079;44.540;18.784;2023-12-14T10:49:56;7.05;;;4.50;;
55776;SDS011;54079;44.540;18.784;2023-12-14T10:52:24;1.55;;;1.13;;
55776;SDS011;54079;44.540;18.784;2023-12-14T10:54:53;6.85;;;4.20;;
55776;SDS011;54079;44.540;18.784;2023-12-14T10:57:25;4.13;;;2.78;;
55776;SDS011;54079;44.540;18.784;2023-12-14T10:59:58;9.00;;;6.00;;
55776;SDS011;54079;44.540;18.784;2023-12-14T11:02:28;5.30;;;3.38;;
55776;SDS011;54079;44.540;18.784;2023-12-14T11:05:02;3.60;;;2.17;;
55776;SDS011;54079;44.540;18.784;2023-12-14T11:07:47;6.75;;;4.05;;
55776;SDS011;54079;44.540;18.784;2023-12-14T11:10:22;3.25;;;1.98;;
55776;SDS011;54079;44.540;18.784;2023-12-14T11:15:25;2.35;;;2.10;;
55776;SDS011;54079;44.540;18.784;2023-12-14T11:25:57;5.40;;;3.35;;
55776;SDS011;54079;44.540;18.784;2023-12-14T11:28:25;5.63;;;3.53;;
55776;SDS011;54079;44.540;18.784;2023-12-14T11:30:52;11.50;;;7.22;;
55776;SDS011;54079;44.540;18.784;2023-12-14T11:33:18;4.20;;;3.45;;
55776;SDS011;54079;44.540;18.784;2023-12-14T11:35:44;5.57;;;4.45;;
55776;SDS011;54079;44.540;18.784;2023-12-14T11:38:10;5.72;;;4.00;;
55776;SDS011;54079;44.540;18.784;2023-12-14T11:40:43;7.25;;;5.47;;
55776;SDS011;54079;44.540;18.784;2023-12-14T11:43:10;9.57;;;7.10;;
55776;SDS011;54079;44.540;18.784;2023-12-14T11:45:39;8.70;;;6.45;;
55776;SDS011;54079;44.540;18.784;2023-12-14T11:48:06;7.30;;;4.55;;
55776;SDS011;54079;44.540;18.784;2023-12-14T11:50:36;4.40;;;2.85;;
55776;SDS011;54079;44.540;18.784;2023-12-14T11:53:03;3.85;;;2.15;;
55776;SDS011;54079;44.540;18.784;2023-12-14T11:55:30;8.25;;;5.65;;
55776;SDS011;54079;44.540;18.784;2023-12-14T11:57:57;6.55;;;5.03;;
55776;SDS011;54079;44.540;18.784;2023-12-14T12:00:24;8.30;;;5.72;;
55776;SDS011;54079;44.540;18.784;2023-12-14T12:02:51;6.82;;;5.75;;
55776;SDS011;54079;44.540;18.784;2023-12-14T12:05:17;6.10;;;4.45;;
55776;SDS011;54079;44.540;18.784;2023-12-14T12:07:46;5.80;;;4.25;;
55776;SDS011;54079;44.540;18.784;2023-12-14T12:10:12;2.97;;;2.50;;
55776;SDS011;54079;44.540;18.784;2023-12-14T12:12:38;4.75;;;3.60;;
55776;SDS011;54079;44.540;18.784;2023-12-14T12:15:05;3.60;;;2.40;;
55776;SDS011;54079;44.540;18.784;2023-12-14T12:17:31;2.92;;;1.98;;
55776;SDS011;54079;44.540;18.784;2023-12-14T12:20:04;2.35;;;1.75;;
55776;SDS011;54079;44.540;18.784;2023-12-14T12:22:30;1.55;;;1.42;;
55776;SDS011;54079;44.540;18.784;2023-12-14T12:24:57;5.38;;;4.40;;
55776;SDS011;54079;44.540;18.784;2023-12-14T12:27:24;6.53;;;4.32;;
55776;SDS011;54079;44.540;18.784;2023-12-14T12:29:50;4.60;;;3.20;;
55776;SDS011;54079;44.540;18.784;2023-12-14T12:32:18;1.40;;;1.20;;
55776;SDS011;54079;44.540;18.784;2023-12-14T12:34:44;4.03;;;2.85;;
55776;SDS011;54079;44.540;18.784;2023-12-14T12:37:10;4.82;;;3.60;;
55776;SDS011;54079;44.540;18.784;2023-12-14T12:39:36;5.60;;;4.43;;
55776;SDS011;54079;44.540;18.784;2023-12-14T12:42:04;5.38;;;3.33;;
55776;SDS011;54079;44.540;18.784;2023-12-14T12:44:30;3.80;;;2.13;;
55776;SDS011;54079;44.540;18.784;2023-12-14T12:46:56;2.25;;;1.52;;
55776;SDS011;54079;44.540;18.784;2023-12-14T12:49:24;6.18;;;4.00;;
55776;SDS011;54079;44.540;18.784;2023-12-14T12:51:50;6.18;;;4.72;;
55776;SDS011;54079;44.540;18.784;2023-12-14T12:54:15;3.80;;;2.88;;
55776;SDS011;54079;44.540;18.784;2023-12-14T12:56:41;1.27;;;0.93;;
55776;SDS011;54079;44.540;18.784;2023-12-14T12:59:08;2.60;;;1.50;;
55776;SDS011;54079;44.540;18.784;2023-12-14T13:01:34;1.02;;;0.40;;
55776;SDS011;54079;44.540;18.784;2023-12-14T13:04:00;0.93;;;0.43;;
55776;SDS011;54079;44.540;18.784;2023-12-14T13:06:26;2.38;;;1.83;;
55776;SDS011;54079;44.540;18.784;2023-12-14T13:08:52;4.63;;;3.38;;
55776;SDS011;54079;44.540;18.784;2023-12-14T13:11:18;4.55;;;2.83;;
55776;SDS011;54079;44.540;18.784;2023-12-14T13:13:44;5.28;;;2.83;;
55776;SDS011;54079;44.540;18.784;2023-12-14T13:16:10;3.10;;;2.67;;
55776;SDS011;54079;44.540;18.784;2023-12-14T13:18:39;8.00;;;5.40;;
55776;SDS011;54079;44.540;18.784;2023-12-14T13:21:05;4.93;;;3.38;;
55776;SDS011;54079;44.540;18.784;2023-12-14T13:23:31;2.28;;;1.60;;
55776;SDS011;54079;44.540;18.784;2023-12-14T13:25:58;2.47;;;1.60;;
55776;SDS011;54079;44.540;18.784;2023-12-14T13:28:24;3.63;;;2.22;;
55776;SDS011;54079;44.540;18.784;2023-12-14T13:30:50;9.70;;;6.53;;
55776;SDS011;54079;44.540;18.784;2023-12-14T13:33:16;10.98;;;8.50;;
55776;SDS011;54079;44.540;18.784;2023-12-14T13:35:42;8.82;;;6.43;;
55776;SDS011;54079;44.540;18.784;2023-12-14T13:38:08;10.50;;;7.18;;
55776;SDS011;54079;44.540;18.784;2023-12-14T13:40:34;15.32;;;10.52;;
55776;SDS011;54079;44.540;18.784;2023-12-14T13:43:00;15.38;;;10.55;;
55776;SDS011;54079;44.540;18.784;2023-12-14T13:45:28;12.77;;;8.52;;
55776;SDS011;54079;44.540;18.784;2023-12-14T13:47:55;13.13;;;9.77;;
55776;SDS011;54079;44.540;18.784;2023-12-14T13:50:23;9.55;;;6.10;;
55776;SDS011;54079;44.540;18.784;2023-12-14T13:52:51;13.23;;;9.05;;
55776;SDS011;54079;44.540;18.784;2023-12-14T13:55:18;10.68;;;8.13;;
55776;SDS011;54079;44.540;18.784;2023-12-14T13:57:43;10.07;;;6.30;;
55776;SDS011;54079;44.540;18.784;2023-12-14T14:00:11;17.38;;;11.65;;
55776;SDS011;54079;44.540;18.784;2023-12-14T14:02:37;17.05;;;12.25;;
55776;SDS011;54079;44.540;18.784;2023-12-14T14:05:03;19.45;;;14.02;;
55776;SDS011;54079;44.540;18.784;2023-12-14T14:07:29;22.88;;;15.07;;
55776;SDS011;54079;44.540;18.784;2023-12-14T14:09:56;18.92;;;14.00;;
55776;SDS011;54079;44.540;18.784;2023-12-14T14:12:22;18.50;;;11.57;;
55776;SDS011;54079;44.540;18.784;2023-12-14T14:14:48;16.02;;;11.00;;
55776;SDS011;54079;44.540;18.784;2023-12-14T14:17:14;10.15;;;7.68;;
55776;SDS011;54079;44.540;18.784;2023-12-14T14:19:40;10.75;;;8.23;;
55776;SDS011;54079;44.540;18.784;2023-12-14T14:22:06;6.55;;;5.05;;
55776;SDS011;54079;44.540;18.784;2023-12-14T14:24:33;8.15;;;5.88;;
55776;SDS011;54079;44.540;18.784;2023-12-14T14:26:59;6.50;;;4.95;;
55776;SDS011;54079;44.540;18.784;2023-12-14T14:29:25;11.13;;;8.13;;
55776;SDS011;54079;44.540;18.784;2023-12-14T14:31:51;10.52;;;7.97;;
55776;SDS011;54079;44.540;18.784;2023-12-14T14:34:17;12.02;;;8.32;;
55776;SDS011;54079;44.540;18.784;2023-12-14T14:36:43;6.60;;;5.07;;